Ark, Virginia
Current Conditions -  °F | °C
As of 5:35 AM on Thursday 27 Nov 2014 (Local Time) from KFYJ Reporting Station
Broken Clouds Broken Clouds  
Wind Chill: 38°   Ceiling: 700
Heat Index: 38°   Visibility: 5mi
Dew Point: 37°   Wind: 0mph
Humidity: 93%   Direction: NA
Pressure: 30.05"   Gusts: NA
Location:  37.44°N, 76.58°W
Report Text: KFYJ 271035Z AUTO 00000KT 5SM BKN007 BKN055 BKN070 04/03 A3005 RMK AO2 T00350025
Loading
Personal Weather Stations






























Interactive Weather Map New forecast layout! Learn more

10-Day Weather Forecast

Advertisements
Track Severe Weather on mobile